Time;durP1;ratioP1;P1;durP2;ratioP2;P2;SDS_P1;SDS_P2;PMS_P1;PMS_P2;Temp;Humidity;BMP_temperature;BMP_pressure;BME280_temperature;BME280_humidity;BME280_pressure;Samples;Min_cycle;Max_cycle;Signal;HPM_P1;HPM_P2
2022/02/01 00:02:46;;;;;;;6.85;2.67;;;;;;;-1.23;100.00;98145.22;1730693;82;21581;-59
2022/02/01 00:05:17;;;;;;;8.08;2.95;;;;;;;-1.23;100.00;98143.89;1739987;82;21137;-59
2022/02/01 00:10:21;;;;;;;8.33;2.77;;;;;;;-1.22;100.00;98151.38;1715473;82;21091;-59
2022/02/01 00:12:56;;;;;;;8.23;3.30;;;;;;;-1.23;100.00;98152.41;1689200;84;20999;-59
2022/02/01 00:15:40;;;;;;;8.55;3.60;;;;;;;-1.24;100.00;98145.48;1692060;84;21099;-59
2022/02/01 00:18:11;;;;;;;8.23;3.25;;;;;;;-1.23;100.00;98153.75;1673932;84;21087;-59
2022/02/01 00:36:53;;;;;;;8.03;3.60;;;;;;;-1.32;100.00;98164.52;1644421;86;21600;-57
2022/02/01 00:39:16;;;;;;;7.70;3.20;;;;;;;-1.32;100.00;98163.99;1670210;84;21063;-58
2022/02/01 00:41:51;;;;;;;7.33;3.37;;;;;;;-1.32;100.00;98168.00;1691200;84;21099;-58
2022/02/01 00:44:10;;;;;;;10.40;3.42;;;;;;;-1.32;100.00;98173.34;1695725;84;21095;-58
2022/02/01 00:46:37;;;;;;;13.55;3.50;;;;;;;-1.35;100.00;98168.47;1675528;84;21590;-58
2022/02/01 00:49:04;;;;;;;9.88;3.30;;;;;;;-1.34;100.00;98170.59;1683110;84;21637;-58
2022/02/01 00:51:30;;;;;;;8.45;3.17;;;;;;;-1.35;100.00;98165.80;1699236;84;21548;-58
2022/02/01 00:53:57;;;;;;;7.92;3.35;;;;;;;-1.39;100.00;98158.48;1682498;84;21606;-58
2022/02/01 00:56:24;;;;;;;10.45;3.27;;;;;;;-1.34;100.00;98167.40;1671903;84;21070;-58
2022/02/01 00:58:51;;;;;;;6.90;3.00;;;;;;;-1.34;100.00;98166.06;1685217;84;21087;-58
2022/02/01 01:01:17;;;;;;;9.13;3.30;;;;;;;-1.33;100.00;98170.89;1687183;84;21059;-59
2022/02/01 01:03:47;;;;;;;11.18;3.67;;;;;;;-1.34;100.00;98170.07;1695344;84;21671;-58
2022/02/01 01:06:14;;;;;;;11.00;3.55;;;;;;;-1.36;100.00;98166.84;1681432;84;21068;-58
2022/02/01 01:08:42;;;;;;;11.73;3.70;;;;;;;-1.34;100.00;98173.26;1671026;84;21079;-58
2022/02/01 01:11:10;;;;;;;9.55;3.40;;;;;;;-1.34;100.00;98169.25;1671440;84;21011;-58
2022/02/01 01:38:43;;;;;;;8.88;3.25;;;;;;;-1.35;100.00;98173.80;1687816;84;21059;-57
2022/02/01 01:43:37;;;;;;;11.90;3.65;;;;;;;-1.41;100.00;98176.05;1689469;84;21158;-59
2022/02/01 01:46:14;;;;;;;13.40;3.75;;;;;;;-1.41;100.00;98181.39;1693810;84;21055;-59
2022/02/01 01:53:59;;;;;;;9.95;4.08;;;;;;;-1.43;100.00;98193.35;1739658;82;21063;-59
2022/02/01 01:56:24;;;;;;;10.13;4.03;;;;;;;-1.42;100.00;98198.99;1721513;82;21008;-59
2022/02/01 01:58:51;;;;;;;10.58;4.05;;;;;;;-1.42;100.00;98190.98;1717808;82;21082;-59
2022/02/01 02:01:18;;;;;;;12.15;3.92;;;;;;;-1.42;100.00;98190.47;1726444;82;21062;-58
2022/02/01 02:03:47;;;;;;;11.55;3.87;;;;;;;-1.45;100.00;98191.45;1732457;82;21071;-59
2022/02/01 02:06:16;;;;;;;10.80;4.15;;;;;;;-1.45;100.00;98196.24;1745167;82;21063;-59
2022/02/01 02:08:46;;;;;;;10.00;3.77;;;;;;;-1.43;100.00;98196.02;1726161;82;21593;-58
2022/02/01 02:11:19;;;;;;;8.90;3.50;;;;;;;-1.42;100.00;98201.66;1706791;83;21016;-58
2022/02/01 02:16:43;;;;;;;8.40;3.55;;;;;;;-1.45;100.00;98210.92;1733238;82;20976;-59
2022/02/01 02:19:09;;;;;;;8.88;3.37;;;;;;;-1.45;100.00;98201.58;1731025;82;21074;-60
2022/02/01 02:21:37;;;;;;;8.45;3.60;;;;;;;-1.43;100.00;98206.70;1743364;82;20980;-59
2022/02/01 02:24:05;;;;;;;9.43;4.17;;;;;;;-1.42;100.00;98202.99;1722985;82;21004;-59
2022/02/01 02:26:32;;;;;;;9.50;3.62;;;;;;;-1.43;100.00;98205.36;1706420;84;21000;-58
2022/02/01 02:29:00;;;;;;;8.68;3.30;;;;;;;-1.44;100.00;98198.39;1671364;84;21727;-59
2022/02/01 02:31:26;;;;;;;12.30;4.10;;;;;;;-1.44;100.00;98201.87;1683869;84;21011;-59
2022/02/01 02:34:03;;;;;;;15.53;4.58;;;;;;;-1.43;100.00;98204.84;1687693;84;21110;-59
2022/02/01 02:36:29;;;;;;;8.75;3.85;;;;;;;-1.43;100.00;98209.37;1696550;84;21075;-58
2022/02/01 02:39:10;;;;;;;10.78;3.98;;;;;;;-1.44;100.00;98216.55;1684823;84;21078;-58
2022/02/01 02:41:33;;;;;;;12.35;3.92;;;;;;;-1.44;100.00;98213.07;1671116;84;21094;-59
2022/02/01 02:46:47;;;;;;;8.40;3.70;;;;;;;-1.45;100.00;98220.27;1672304;84;21027;-58
2022/02/01 02:49:19;;;;;;;8.23;4.08;;;;;;;-1.45;100.00;98223.48;1692760;84;21075;-58
2022/02/01 02:51:46;;;;;;;9.25;3.90;;;;;;;-1.43;100.00;98232.05;1685754;84;21055;-58
2022/02/01 02:54:15;;;;;;;;;;;;;;;-1.43;100.00;98224.86;1698829;84;21111;-58
2022/02/01 02:56:47;;;;;;;10.30;4.00;;;;;;;-1.44;100.00;98226.42;1693520;84;20139;-57
2022/02/01 02:59:15;;;;;;;8.90;3.95;;;;;;;-1.45;100.00;98232.27;1685570;84;21086;-57
2022/02/01 03:01:46;;;;;;;11.83;4.30;;;;;;;-1.49;100.00;98225.80;1733539;82;21525;-58
2022/02/01 03:04:11;;;;;;;9.15;4.42;;;;;;;-1.49;100.00;98231.66;1747067;82;21055;-58
2022/02/01 03:06:38;;;;;;;12.20;4.42;;;;;;;-1.49;100.00;98236.98;1728168;82;21000;-58
2022/02/01 03:09:04;;;;;;;11.75;4.12;;;;;;;-1.50;100.00;98245.52;1725242;82;21541;-59
2022/02/01 03:11:31;;;;;;;7.95;3.15;;;;;;;-1.50;100.00;98240.17;1745836;82;21569;-58
2022/02/01 03:14:00;;;;;;;10.08;4.05;;;;;;;-1.51;100.00;98249.22;1728948;81;21521;-58
2022/02/01 03:16:51;;;;;;;13.58;3.98;;;;;;;-1.55;100.00;98244.86;1749901;82;21422;-58
2022/02/01 03:22:40;;;;;;;12.05;3.65;;;;;;;-1.53;100.00;98241.98;1798693;78;23191;-58
2022/02/01 03:25:10;;;;;;;6.45;3.15;;;;;;;-1.58;100.00;98251.18;1737378;81;21628;-58
2022/02/01 03:27:37;;;;;;;8.85;3.20;;;;;;;-1.57;100.00;98248.30;1740901;80;21588;-58
2022/02/01 03:30:04;;;;;;;10.00;3.75;;;;;;;-1.56;100.00;98251.23;1717178;82;23097;-58
2022/02/01 03:32:31;;;;;;;8.85;3.70;;;;;;;-1.57;100.00;98253.63;1706975;83;21075;-58
2022/02/01 03:34:57;;;;;;;7.70;3.98;;;;;;;-1.58;100.00;98249.33;1695197;83;21083;-59
2022/02/01 03:37:23;;;;;;;9.78;3.60;;;;;;;-1.57;100.00;98245.63;1710943;83;21093;-58
2022/02/01 03:39:50;;;;;;;7.30;3.27;;;;;;;-1.59;100.00;98254.88;1729904;81;21062;-58
2022/02/01 03:42:17;;;;;;;9.03;3.55;;;;;;;-1.59;100.00;98254.36;1714085;82;21539;-58
2022/02/01 03:44:43;;;;;;;9.18;3.47;;;;;;;-1.60;100.00;98255.43;1731708;82;21062;-58
2022/02/01 03:47:09;;;;;;;9.70;3.40;;;;;;;-1.60;100.00;98252.77;1707935;82;20990;-58
2022/02/01 03:49:40;;;;;;;11.38;3.35;;;;;;;-1.59;100.00;98256.22;1724679;82;21093;-58
2022/02/01 03:52:07;;;;;;;9.73;3.65;;;;;;;-1.60;100.00;98263.44;1712381;83;21042;-58
2022/02/01 03:54:34;;;;;;;10.13;3.20;;;;;;;-1.61;100.00;98266.32;1689854;83;21619;-58
2022/02/01 03:57:01;;;;;;;;;;;;;;;-1.65;100.00;98263.30;1708329;83;21523;-58
2022/02/01 03:59:28;;;;;;;10.80;3.40;;;;;;;-1.63;100.00;98269.20;1718734;81;20127;-58
2022/02/01 04:01:56;;;;;;;11.30;4.08;;;;;;;-1.64;100.00;98256.92;1730474;82;21070;-58
2022/02/01 04:04:26;;;;;;;9.20;3.58;;;;;;;-1.66;100.00;98277.67;1723833;82;21069;-58
2022/02/01 04:06:52;;;;;;;14.93;3.92;;;;;;;-1.67;100.00;98268.58;1710439;81;21123;-58
2022/02/01 04:09:20;;;;;;;8.40;3.40;;;;;;;-1.69;100.00;98269.31;1724843;82;21093;-58
2022/02/01 04:11:46;;;;;;;8.65;3.30;;;;;;;-1.71;100.00;98267.41;1707999;82;21076;-58
2022/02/01 04:14:17;;;;;;;8.25;3.67;;;;;;;-1.73;100.00;98269.47;1704244;82;21085;-58
2022/02/01 04:16:42;;;;;;;8.30;3.55;;;;;;;-1.75;100.00;98275.57;1723092;82;21066;-57
2022/02/01 04:19:08;;;;;;;10.88;4.28;;;;;;;-1.75;100.00;98280.39;1721692;83;21055;-58
2022/02/01 04:21:35;;;;;;;8.55;3.77;;;;;;;-1.76;100.00;98285.94;1712339;82;21732;-58
2022/02/01 04:24:01;;;;;;;11.73;4.33;;;;;;;-1.78;100.00;98290.19;1724329;82;21620;-59
2022/02/01 04:26:28;;;;;;;9.80;3.52;;;;;;;-1.81;100.00;98288.49;1719219;82;21517;-58
2022/02/01 04:28:54;;;;;;;10.40;4.05;;;;;;;-1.85;100.00;98285.98;1704316;83;21620;-58
2022/02/01 04:31:21;;;;;;;9.00;3.67;;;;;;;-1.87;100.00;98290.20;1693031;82;21593;-57
2022/02/01 04:33:47;;;;;;;9.78;3.95;;;;;;;-1.88;100.00;98284.59;1678111;83;21484;-58
2022/02/01 04:36:13;;;;;;;12.23;4.53;;;;;;;-1.91;100.00;98294.36;1723356;82;21088;-58
2022/02/01 04:38:46;;;;;;;11.50;4.33;;;;;;;-1.92;100.00;98297.27;1671203;82;21537;-58
2022/02/01 04:41:08;;;;;;;10.23;4.33;;;;;;;-1.94;100.00;98294.81;1695541;83;21043;-57
2022/02/01 04:43:36;;;;;;;11.75;4.28;;;;;;;-1.99;100.00;98295.21;1706381;81;21361;-58
2022/02/01 04:46:04;;;;;;;13.98;4.47;;;;;;;-2.02;100.00;98301.82;1728661;81;21042;-58
2022/02/01 04:48:30;;;;;;;12.75;4.15;;;;;;;-2.07;100.00;98299.82;1731862;81;21578;-58
2022/02/01 04:50:57;;;;;;;10.00;4.40;;;;;;;-2.10;100.00;98304.79;1728077;83;21628;-57
2022/02/01 04:53:23;;;;;;;10.60;4.20;;;;;;;-2.13;100.00;98310.58;1702339;81;21537;-58
2022/02/01 04:55:56;;;;;;;11.80;4.10;;;;;;;-2.16;100.00;98307.82;1719941;83;21644;-58
2022/02/01 04:58:23;;;;;;;13.88;4.60;;;;;;;-2.18;100.00;98299.25;1700815;83;21042;-57
2022/02/01 05:00:50;;;;;;;12.37;4.85;;;;;;;-2.21;100.00;98305.55;1730629;82;21605;-60
2022/02/01 05:03:17;;;;;;;;;;;;;;;-2.24;100.00;98317.48;1712831;83;21067;-57
2022/02/01 05:05:44;;;;;;;10.50;4.60;;;;;;;-2.27;100.00;98321.93;1697499;81;20178;-57
2022/02/01 05:08:12;;;;;;;11.28;4.65;;;;;;;-2.32;100.00;98328.44;1727169;83;21093;-58
2022/02/01 05:10:39;;;;;;;13.45;4.97;;;;;;;-2.35;100.00;98324.07;1696948;83;21612;-58
2022/02/01 05:13:35;;;;;;;11.60;4.65;;;;;;;-2.40;100.00;98329.24;1695761;83;21460;-57
2022/02/01 05:15:39;;;;;;;16.27;4.45;;;;;;;-2.41;100.00;98332.45;1709557;83;21082;-57
2022/02/01 05:18:06;;;;;;;12.63;4.85;;;;;;;-2.44;100.00;98332.87;1730334;83;21537;-58
2022/02/01 05:20:48;;;;;;;11.60;4.75;;;;;;;-2.46;100.00;98337.63;1702216;83;21569;-57
2022/02/01 05:23:00;;;;;;;12.25;5.05;;;;;;;-2.47;100.00;98335.98;1707440;83;21031;-57
2022/02/01 05:25:29;;;;;;;11.15;4.90;;;;;;;-2.51;100.00;98346.27;1730300;83;21150;-57
2022/02/01 05:27:58;;;;;;;13.40;4.80;;;;;;;-2.53;100.00;98350.20;1693616;83;21541;-57
2022/02/01 05:30:24;;;;;;;12.07;5.20;;;;;;;-2.53;100.00;98364.86;1714144;83;21329;-58
2022/02/01 05:32:51;;;;;;;13.28;4.90;;;;;;;-2.55;100.00;98363.73;1683578;84;21131;-58
2022/02/01 05:35:18;;;;;;;12.40;4.90;;;;;;;-2.57;100.00;98371.15;1681264;84;21110;-58
2022/02/01 05:37:44;;;;;;;;;;;;;;;-2.56;100.00;98374.12;1675679;84;21035;-58
2022/02/01 05:40:12;;;;;;;11.45;4.35;;;;;;;-2.55;100.00;98374.94;1692519;82;20118;-58
2022/02/01 05:45:23;;;;;;;14.20;5.35;;;;;;;-2.60;100.00;98393.42;1676881;84;21456;-58
2022/02/01 05:47:49;;;;;;;14.78;5.35;;;;;;;-2.63;100.00;98391.20;1689671;83;21045;-58
2022/02/01 05:50:16;;;;;;;13.43;5.70;;;;;;;-2.64;100.00;98386.90;1724911;82;21045;-58
2022/02/01 05:52:42;;;;;;;15.55;5.00;;;;;;;-2.65;100.00;98391.41;1692137;84;21050;-58
2022/02/01 05:55:12;;;;;;;14.03;4.83;;;;;;;-2.64;100.00;98390.89;1707590;83;21121;-57
2022/02/01 05:57:39;;;;;;;11.30;5.42;;;;;;;-2.64;100.00;98390.89;1689997;83;21083;-57
2022/02/01 06:00:07;;;;;;;;;;;;;;;-2.64;100.00;98398.89;1687782;84;21094;-58
2022/02/01 06:02:36;;;;;;;12.50;5.05;;;;;;;-2.62;100.00;98410.95;1662724;85;20436;-58
2022/02/01 06:05:02;;;;;;;12.58;5.20;;;;;;;-2.62;100.00;98413.61;1668574;84;21608;-57
2022/02/01 06:07:29;;;;;;;11.33;5.17;;;;;;;-2.61;100.00;98418.42;1678750;83;21190;-58
2022/02/01 06:09:55;;;;;;;17.15;5.65;;;;;;;-2.60;100.00;98422.22;1713621;83;21031;-57
2022/02/01 06:12:22;;;;;;;13.32;5.47;;;;;;;-2.61;100.00;98423.24;1710468;83;21120;-60
2022/02/01 06:14:48;;;;;;;12.23;5.22;;;;;;;-2.60;100.00;98426.21;1709309;82;21053;-58
2022/02/01 06:17:15;;;;;;;14.00;5.85;;;;;;;-2.60;100.00;98438.20;1715640;83;21066;-58
2022/02/01 06:19:41;;;;;;;11.83;4.78;;;;;;;-2.59;100.00;98444.35;1727025;83;21172;-58
2022/02/01 06:22:07;;;;;;;15.40;5.33;;;;;;;-2.58;100.00;98449.95;1711509;83;21050;-57
2022/02/01 06:24:35;;;;;;;17.77;5.40;;;;;;;-2.58;100.00;98451.28;1700861;82;21117;-57
2022/02/01 06:27:01;;;;;;;11.45;4.75;;;;;;;-2.59;100.00;98451.83;1690958;83;21094;-56
2022/02/01 06:29:28;;;;;;;13.72;5.22;;;;;;;-2.57;100.00;98442.27;1671390;84;21137;-57
2022/02/01 06:31:55;;;;;;;12.90;5.95;;;;;;;-2.57;100.00;98455.59;1682926;83;21095;-57
2022/02/01 06:34:21;;;;;;;12.30;5.20;;;;;;;-2.58;100.00;98452.11;1697934;83;21657;-57
2022/02/01 06:36:48;;;;;;;12.53;5.00;;;;;;;-2.57;100.00;98455.08;1692247;83;21521;-57
2022/02/01 06:39:14;;;;;;;17.12;5.85;;;;;;;-2.57;100.00;98447.08;1709349;83;21564;-57
2022/02/01 06:41:41;;;;;;;13.22;6.03;;;;;;;-2.55;100.00;98460.98;1731498;83;21106;-58
2022/02/01 06:44:07;;;;;;;15.40;5.67;;;;;;;-2.52;100.00;98465.91;1711979;81;21073;-57
2022/02/01 06:46:34;;;;;;;13.90;5.03;;;;;;;-2.50;100.00;98469.67;1723584;83;21070;-57
2022/02/01 06:49:01;;;;;;;14.68;5.65;;;;;;;-2.48;100.00;98474.28;1732402;83;21154;-57
2022/02/01 06:51:28;;;;;;;15.13;5.60;;;;;;;-2.46;100.00;98476.70;1719577;81;21056;-57
2022/02/01 06:53:58;;;;;;;12.30;5.25;;;;;;;-2.45;100.00;98483.16;1714051;83;21593;-57
2022/02/01 06:56:33;;;;;;;14.75;5.40;;;;;;;-2.42;100.00;98480.57;1685070;83;21057;-57
2022/02/01 06:58:52;;;;;;;16.37;5.60;;;;;;;-2.38;100.00;98484.44;1707647;83;21061;-57
2022/02/01 07:01:18;;;;;;;19.65;6.60;;;;;;;-2.35;100.00;98486.14;1702076;83;21105;-58
2022/02/01 07:03:45;;;;;;;12.45;5.25;;;;;;;-2.31;100.00;98483.34;1705414;81;21019;-58
2022/02/01 07:06:12;;;;;;;18.37;5.83;;;;;;;-2.29;100.00;98492.43;1701903;83;21074;-58
2022/02/01 07:08:42;;;;;;;14.87;5.67;;;;;;;-2.29;100.00;98481.77;1696651;83;21081;-58
2022/02/01 07:11:09;;;;;;;13.80;5.37;;;;;;;-2.27;100.00;98486.38;1692135;83;21080;-58
2022/02/01 07:13:37;;;;;;;12.88;5.28;;;;;;;-2.22;100.00;98491.85;1698590;81;21058;-58
2022/02/01 07:16:05;;;;;;;11.78;5.00;;;;;;;-2.18;100.00;98486.38;1704476;81;21050;-59
2022/02/01 07:18:31;;;;;;;16.50;6.10;;;;;;;-2.17;100.00;98489.36;1705898;81;21015;-59
2022/02/01 07:20:58;;;;;;;;;;;;;;;-2.18;100.00;98487.72;1691154;83;21026;-60
2022/02/01 07:23:27;;;;;;;17.62;5.25;;;;;;;-2.16;100.00;98491.78;1677876;84;20135;-59
2022/02/01 07:25:55;;;;;;;16.60;6.92;;;;;;;-2.16;100.00;98493.12;1674189;84;21057;-60
2022/02/01 07:28:25;;;;;;;13.15;6.22;;;;;;;-2.12;100.00;98492.16;1692340;84;21061;-60
2022/02/01 07:30:52;;;;;;;11.68;6.20;;;;;;;-2.11;100.00;98493.28;1677683;84;21117;-60
2022/02/01 07:33:18;;;;;;;14.43;5.65;;;;;;;-2.08;100.00;98490.69;1689055;81;21010;-60
2022/02/01 07:35:47;;;;;;;15.13;6.47;;;;;;;-2.02;100.00;98491.16;1719664;83;21067;-56
2022/02/01 07:38:21;;;;;;;15.88;6.47;;;;;;;-1.97;100.00;98491.29;1700719;83;21117;-56
2022/02/01 07:40:44;;;;;;;14.40;5.95;;;;;;;-1.95;100.00;98493.75;1692278;83;21161;-55
2022/02/01 07:43:13;;;;;;;16.12;6.00;;;;;;;-1.91;100.00;98500.27;1691546;84;21054;-56
2022/02/01 07:45:42;;;;;;;14.47;5.70;;;;;;;-1.89;100.00;98497.67;1717565;81;21192;-56
2022/02/01 07:48:09;;;;;;;12.03;5.42;;;;;;;-1.85;100.00;98500.20;1720898;83;21616;-56
2022/02/01 07:50:36;;;;;;;15.00;5.72;;;;;;;-1.79;100.00;98507.30;1715146;82;21634;-56
2022/02/01 07:53:04;;;;;;;14.85;6.50;;;;;;;-1.75;100.00;98511.16;1714653;83;21580;-57
2022/02/01 07:55:31;;;;;;;16.73;6.28;;;;;;;-1.68;100.00;98519.09;1697514;81;21132;-56
2022/02/01 07:57:58;;;;;;;;;;;;;;;-1.63;100.00;98521.91;1668300;84;21102;-55
2022/02/01 08:00:24;;;;;;;14.65;6.30;;;;;;;-1.60;100.00;98526.28;1710262;82;20109;-56
2022/02/01 08:02:55;;;;;;;14.25;6.12;;;;;;;-1.66;100.00;98511.14;1698210;83;21717;-57
2022/02/01 08:05:26;;;;;;;15.50;5.67;;;;;;;-1.62;100.00;98525.67;1674478;84;21539;-56
2022/02/01 08:07:53;;;;;;;13.28;5.85;;;;;;;-1.57;100.00;98531.69;1710039;82;20982;-56
2022/02/01 08:10:20;;;;;;;14.15;5.95;;;;;;;-1.55;100.00;98538.42;1722524;82;21557;-56
2022/02/01 08:20:33;;;;;;;15.23;5.90;;;;;;;-1.40;100.00;98543.91;1684424;84;21080;-55
2022/02/01 08:25:24;;;;;;;16.97;6.65;;;;;;;-1.36;100.00;98536.56;1689877;83;21186;-56
2022/02/01 08:27:54;;;;;;;12.95;6.33;;;;;;;-1.33;100.00;98541.45;1676448;84;21094;-56
2022/02/01 08:30:19;;;;;;;18.10;6.28;;;;;;;-1.29;100.00;98541.30;1673635;84;21117;-56
2022/02/01 08:32:46;;;;;;;17.70;6.70;;;;;;;-1.23;100.00;98542.25;1697494;83;21050;-56
2022/02/01 08:35:13;;;;;;;15.55;6.95;;;;;;;-1.21;100.00;98545.01;1704500;84;21082;-57
2022/02/01 08:37:39;;;;;;;13.00;5.53;;;;;;;-1.19;100.00;98549.59;1676295;84;21088;-56
2022/02/01 08:40:08;;;;;;;;;;;;;;;-1.19;100.00;98542.09;1696938;84;21092;-56
2022/02/01 08:42:35;;;;;;;14.15;6.95;;;;;;;-1.13;100.00;98551.86;1717956;82;20150;-56
2022/02/01 08:45:05;;;;;;;18.27;6.95;;;;;;;-1.10;100.00;98552.23;1732307;82;21695;-56
2022/02/01 08:47:33;;;;;;;16.65;7.05;;;;;;;-1.02;100.00;98553.78;1729219;82;21059;-56
2022/02/01 08:50:00;;;;;;;;;;;;;;;-0.97;100.00;98559.27;1728587;82;21623;-56
2022/02/01 08:52:35;;;;;;;15.55;6.30;;;;;;;-0.93;100.00;98565.80;1713120;81;20144;-58
2022/02/01 08:54:55;;;;;;;17.05;6.97;;;;;;;-0.92;100.00;98560.73;1730623;81;21073;-57
2022/02/01 08:57:23;;;;;;;13.48;6.72;;;;;;;-0.89;100.00;98562.15;1703666;83;21105;-57
2022/02/01 08:59:50;;;;;;;14.35;6.35;;;;;;;-0.86;100.00;98560.36;1702841;83;21066;-57
2022/02/01 09:02:24;;;;;;;18.73;6.70;;;;;;;-0.85;100.00;98568.13;1704241;83;21100;-56
2022/02/01 09:04:51;;;;;;;13.28;6.22;;;;;;;-0.83;100.00;98568.73;1705789;83;21573;-56
2022/02/01 09:07:17;;;;;;;14.83;6.60;;;;;;;-0.78;100.00;98568.06;1726245;82;21061;-56
2022/02/01 09:09:44;;;;;;;16.05;6.65;;;;;;;-0.76;100.00;98568.64;1734654;82;21066;-57
2022/02/01 09:12:10;;;;;;;;;;;;;;;-0.71;100.00;98565.56;1726021;81;21079;-56
2022/02/01 09:14:37;;;;;;;13.50;5.90;;;;;;;-0.64;100.00;98571.62;1718985;82;20105;-56
2022/02/01 09:17:03;;;;;;;13.78;6.58;;;;;;;-0.63;100.00;98575.94;1710931;83;21015;-58
2022/02/01 09:19:30;;;;;;;14.00;6.95;;;;;;;-0.59;100.00;98576.30;1734316;81;21114;-56
2022/02/01 09:21:57;;;;;;;;;;;;;;;-0.58;100.00;98570.73;1682467;84;21013;-57
2022/02/01 09:24:24;;;;;;;11.97;6.20;;;;;;;-0.60;100.00;98565.30;1676364;85;20530;-57
2022/02/01 09:26:51;;;;;;;12.95;6.22;;;;;;;-0.59;100.00;98561.59;1697152;83;21039;-57
2022/02/01 09:29:19;;;;;;;16.40;6.92;;;;;;;-0.50;100.00;98569.60;1701298;82;21129;-56
2022/02/01 09:31:47;;;;;;;14.25;7.05;;;;;;;-0.42;100.00;98557.73;1698379;82;21026;-57
2022/02/01 09:34:14;;;;;;;15.38;6.95;;;;;;;-0.38;100.00;98560.24;1707767;81;21054;-57
2022/02/01 09:36:40;;;;;;;;;;;;;;;-0.38;100.00;98561.06;1715146;83;21351;-57
2022/02/01 09:39:08;;;;;;;14.83;6.53;;;;;;;-0.38;100.00;98568.27;1702317;84;20096;-57
2022/02/01 09:41:39;;;;;;;16.00;6.87;;;;;;;-0.41;100.00;98563.38;1721351;82;21412;-56
2022/02/01 09:44:06;;;;;;;13.85;6.85;;;;;;;-0.37;100.00;98559.20;1701523;84;21009;-56
2022/02/01 09:46:35;;;;;;;13.88;6.80;;;;;;;-0.32;100.00;98552.66;1691036;84;21086;-56
2022/02/01 09:49:03;;;;;;;15.13;7.15;;;;;;;-0.24;100.00;98544.28;1688594;83;21050;-57
2022/02/01 09:51:30;;;;;;;14.13;7.42;;;;;;;-0.17;100.00;98551.67;1679940;84;21032;-57
2022/02/01 09:53:56;;;;;;;14.55;6.60;;;;;;;-0.14;100.00;98544.52;1682130;84;21082;-57
2022/02/01 09:56:23;;;;;;;13.08;6.78;;;;;;;-0.09;100.00;98546.80;1678953;84;21004;-57
2022/02/01 09:58:55;;;;;;;16.37;7.30;;;;;;;-0.03;100.00;98547.20;1696151;84;21208;-57
2022/02/01 10:01:21;;;;;;;16.93;7.45;;;;;;;0.05;100.00;98559.42;1678405;84;21057;-56
2022/02/01 10:04:04;;;;;;;14.47;7.25;;;;;;;0.06;100.00;98558.91;1672739;85;21621;-56
2022/02/01 10:06:31;;;;;;;13.40;6.83;;;;;;;0.09;100.00;98554.42;1674078;85;20983;-56
2022/02/01 10:09:07;;;;;;;14.23;7.50;;;;;;;0.16;100.00;98561.28;1703779;83;21135;-56
2022/02/01 10:11:43;;;;;;;11.90;6.92;;;;;;;0.20;100.00;98559.78;1722163;82;21030;-56
2022/02/01 10:14:15;;;;;;;16.52;7.60;;;;;;;0.20;100.00;98563.79;1692471;84;21098;-57
2022/02/01 10:16:49;;;;;;;15.30;7.20;;;;;;;0.17;100.00;98567.46;1686868;84;21574;-57
2022/02/01 10:19:14;;;;;;;14.18;7.08;;;;;;;0.18;100.00;98567.76;1697991;84;21578;-57
2022/02/01 10:21:56;;;;;;;15.23;7.08;;;;;;;0.24;100.00;98563.62;1699730;83;21466;-57
2022/02/01 10:24:43;;;;;;;13.98;7.22;;;;;;;0.28;100.00;98555.94;1704173;82;21062;-57
2022/02/01 10:27:18;;;;;;;14.70;6.62;;;;;;;0.30;100.00;98559.18;1713816;82;20938;-57
2022/02/01 10:30:12;;;;;;;15.53;7.37;;;;;;;0.37;100.00;98561.21;1681141;84;21625;-57
2022/02/01 10:33:31;;;;;;;11.35;6.40;;;;;;;0.33;100.00;98560.86;1723582;83;21117;-57
2022/02/01 10:35:23;;;;;;;13.85;6.67;;;;;;;0.31;100.00;98565.65;1662951;84;21638;-56
2022/02/01 10:37:40;;;;;;;16.65;7.67;;;;;;;0.38;100.00;98569.54;1730751;82;21015;-56
2022/02/01 10:40:07;;;;;;;13.50;7.00;;;;;;;0.45;100.00;98560.86;1730259;82;21047;-57
2022/02/01 10:42:36;;;;;;;15.93;7.42;;;;;;;0.53;100.00;98557.83;1674634;84;21023;-57
2022/02/01 10:45:02;;;;;;;14.60;7.70;;;;;;;0.59;100.00;98564.91;1684601;84;21129;-56
2022/02/01 10:47:35;;;;;;;;;;;;;;;0.64;100.00;98568.23;1734629;82;20998;-56
2022/02/01 10:50:09;;;;;;;14.50;7.17;;;;;;;0.63;100.00;98563.91;1683569;84;20114;-57
2022/02/01 10:52:46;;;;;;;15.05;7.33;;;;;;;0.60;100.00;98561.71;1696476;83;21097;-58
2022/02/01 10:55:14;;;;;;;14.85;7.33;;;;;;;0.62;100.00;98565.77;1719749;83;21106;-58
2022/02/01 10:57:41;;;;;;;13.88;7.72;;;;;;;0.61;100.00;98564.14;1727300;82;21031;-58
2022/02/01 11:00:09;;;;;;;14.75;7.37;;;;;;;0.63;100.00;98558.04;1733228;82;21061;-58
2022/02/01 11:02:42;;;;;;;12.25;6.33;;;;;;;0.62;100.00;98558.26;1699756;84;21051;-58
2022/02/01 11:05:17;;;;;;;15.35;6.62;;;;;;;0.53;100.00;98562.36;1700013;83;21658;-58
2022/02/01 11:07:43;;;;;;;15.53;7.50;;;;;;;0.34;100.00;98547.78;1729414;82;21045;-56
2022/02/01 11:10:11;;;;;;;14.07;6.65;;;;;;;0.42;100.00;98569.37;1648834;85;21033;-56
2022/02/01 11:12:39;;;;;;;12.40;6.60;;;;;;;0.40;100.00;98568.77;1675874;85;21123;-58
2022/02/01 11:15:20;;;;;;;13.22;6.78;;;;;;;0.42;100.00;98572.05;1686745;82;21082;-58
2022/02/01 11:17:49;;;;;;;17.20;6.78;;;;;;;0.45;100.00;98568.89;1676030;83;21014;-59
2022/02/01 11:20:27;;;;;;;14.28;6.60;;;;;;;0.51;100.00;98575.97;1717481;83;21094;-59
2022/02/01 11:23:07;;;;;;;13.60;7.10;;;;;;;0.55;100.00;98573.13;1733361;82;21608;-56
2022/02/01 11:25:48;;;;;;;13.60;6.15;;;;;;;0.67;100.00;98573.11;1713260;82;21651;-56
2022/02/01 11:28:38;;;;;;;12.43;6.15;;;;;;;0.78;100.00;98562.89;1724847;82;21544;-57
2022/02/01 11:31:01;;;;;;;12.35;6.70;;;;;;;0.81;100.00;98567.25;1731072;82;21461;-56
2022/02/01 11:33:43;;;;;;;12.05;6.40;;;;;;;0.77;100.00;98563.94;1730473;82;21451;-57
2022/02/01 11:36:11;;;;;;;11.63;6.00;;;;;;;0.73;100.00;98553.41;1715696;81;20964;-57
2022/02/01 11:38:56;;;;;;;13.13;5.90;;;;;;;0.67;100.00;98562.39;1724281;83;21026;-57
2022/02/01 11:41:37;;;;;;;11.75;5.03;;;;;;;0.63;100.00;98550.00;1732270;82;20992;-57
2022/02/01 11:44:30;;;;;;;10.80;4.80;;;;;;;0.61;100.00;98553.95;1704289;83;21010;-57
2022/02/01 11:47:11;;;;;;;11.35;4.58;;;;;;;0.56;100.00;98550.66;1704091;83;21055;-57
2022/02/01 11:49:55;;;;;;;9.23;4.33;;;;;;;0.62;100.00;98542.19;1724723;81;21059;-57
2022/02/01 11:52:23;;;;;;;10.53;4.47;;;;;;;0.72;100.00;98552.59;1719448;82;21036;-57
2022/02/01 11:55:03;;;;;;;10.45;4.65;;;;;;;0.89;100.00;98557.48;1714531;82;21069;-56
2022/02/01 11:57:30;;;;;;;12.25;4.78;;;;;;;1.13;100.00;98561.44;1709408;82;21061;-59
2022/02/01 12:00:16;;;;;;;8.90;4.72;;;;;;;1.40;100.00;98557.92;1710334;83;21141;-57
2022/02/01 12:02:49;;;;;;;12.40;5.12;;;;;;;1.45;100.00;98543.24;1710450;82;21118;-57
2022/02/01 12:05:19;;;;;;;10.23;5.05;;;;;;;1.35;100.00;98551.11;1730767;83;21660;-56
2022/02/01 12:08:11;;;;;;;10.28;4.75;;;;;;;1.42;100.00;98551.78;1727038;82;21031;-57
2022/02/01 12:10:42;;;;;;;10.10;4.65;;;;;;;1.50;100.00;98548.70;1728020;82;21071;-57
2022/02/01 12:13:12;;;;;;;10.53;4.95;;;;;;;1.57;100.00;98545.87;1714508;82;21500;-58
2022/02/01 12:15:41;;;;;;;9.85;4.72;;;;;;;1.56;100.00;98548.25;1700890;83;21124;-57
2022/02/01 12:18:28;;;;;;;11.15;4.90;;;;;;;1.39;100.00;98546.08;1702625;83;21059;-58
2022/02/01 12:21:21;;;;;;;10.45;5.30;;;;;;;1.14;100.00;98553.14;1702196;83;20974;-58
2022/02/01 12:23:49;;;;;;;10.10;5.00;;;;;;;0.99;100.00;98551.53;1699755;84;21546;-57
2022/02/01 12:26:24;;;;;;;12.10;5.60;;;;;;;0.86;100.00;98552.60;1703648;83;21008;-57
2022/02/01 12:28:53;;;;;;;9.08;4.97;;;;;;;0.72;100.00;98560.63;1702599;83;21119;-57
2022/02/01 12:31:20;;;;;;;10.45;5.03;;;;;;;0.64;100.00;98554.28;1719344;82;21589;-58
2022/02/01 12:33:51;;;;;;;8.63;4.42;;;;;;;0.59;100.00;98556.88;1697663;83;21042;-57
2022/02/01 12:36:26;;;;;;;9.40;4.20;;;;;;;0.56;100.00;98562.70;1710910;82;21003;-57
2022/02/01 12:38:50;;;;;;;11.10;5.17;;;;;;;0.55;100.00;98565.09;1709316;82;21034;-57
2022/02/01 12:41:19;;;;;;;9.58;4.42;;;;;;;0.60;100.00;98546.98;1726638;82;21455;-57
2022/02/01 12:45:44;;;;;;;10.95;4.20;;;;;;;0.65;100.00;98550.56;1703220;83;21003;-58
2022/02/01 12:46:40;;;;;;;7.90;3.87;;;;;;;0.71;100.00;98547.48;1717247;82;21031;-58
2022/02/01 12:49:02;;;;;;;8.00;3.67;;;;;;;0.74;100.00;98544.33;1730259;81;21045;-57